Mermaid Express — H9PV — position and weather

sailwx.info

Track history (hours):
 
Tides and Currents Weather Stations Pressure Air Temp Water Temp Dewpoint Dewpoint Depression Visibility Wind Speed Wind Dir Waves Ship Positions

Mermaid Express

Last reported at 2016-Sep-15 12:31 UTC. Time now 2016-Sep-28 01:47 UTC.
Position S 23°55' W 040°40'.
Warning: this ship's position is 12 days out of date.

Length 179 m; draft 7.5 m.

Type: Tanker. MMSI: 352866000.

Date/timePositionNaut miles runAvg speedWind from/ knotsBaromVisibWave heightAir tempDewpointWater temp
2016-Sep-15 12:31S 23°55' W 040°40'28711.8
2016-Sep-14 12:09S 24°24' W 045°52'2012.3
2016-Sep-14 10:33S 24°24' W 046°14'1111.2
2016-Sep-14 09:33S 24°15' W 046°21'1111.2
2016-Sep-14 08:34S 24°04' W 046°22'7 6.6
2016-Sep-14 07:30S 23°58' W 046°18'  
2016-Sep-09 05:33S 23°59' W 046°17'6 6.0
2016-Sep-09 04:33S 24°04' W 046°21'2 1.8
2016-Sep-09 03:30S 24°04' W 046°19'0 0.0
2016-Sep-09 02:33S 24°04' W 046°19'0 0.0
2016-Sep-09 01:30S 24°04' W 046°19'0 0.0
2016-Sep-09 00:30S 24°04' W 046°19'0 0.0
2016-Sep-08 23:33S 24°04' W 046°19'0 0.0
2016-Sep-08 22:33S 24°04' W 046°19'0 0.0
2016-Sep-08 21:30S 24°04' W 046°19'0 0.0
2016-Sep-08 20:30S 24°04' W 046°19'0 0.0
2016-Sep-08 19:30S 24°04' W 046°19'0 0.0
2016-Sep-08 18:27S 24°04' W 046°19'0 0.0
2016-Sep-08 17:30S 24°04' W 046°19'0 0.0
2016-Sep-08 16:30S 24°04' W 046°19'0 0.0
2016-Sep-08 15:30S 24°04' W 046°19'0 0.0
2016-Sep-08 14:30S 24°04' W 046°19'0 0.0
2016-Sep-08 13:24S 24°04' W 046°19'0 0.0
2016-Sep-08 12:30S 24°04' W 046°19'0 0.0
2016-Sep-08 11:30S 24°04' W 046°19'0 0.0
2016-Sep-08 10:30S 24°04' W 046°19'0 0.0
2016-Sep-08 09:33S 24°04' W 046°19'0 0.0
2016-Sep-08 08:30S 24°04' W 046°19'0 0.0
2016-Sep-08 07:30S 24°04' W 046°19'0 0.0
2016-Sep-08 06:30S 24°04' W 046°19'0 0.0
2016-Sep-08 05:33S 24°04' W 046°19'0 0.0
2016-Sep-08 04:30S 24°04' W 046°19'0 0.0
2016-Sep-08 03:30S 24°04' W 046°20'0 0.0
2016-Sep-08 02:30S 24°04' W 046°19'0 0.0
2016-Sep-08 01:30S 24°04' W 046°19'0 0.0
2016-Sep-08 00:30S 24°04' W 046°19'0 0.0
2016-Sep-07 23:30S 24°04' W 046°19'0 0.0
2016-Sep-07 22:30S 24°04' W 046°19'0 0.0
2016-Sep-07 21:24S 24°04' W 046°19'0 0.0
2016-Sep-07 20:30S 24°04' W 046°19'0 0.0
2016-Sep-07 19:24S 24°04' W 046°19'0 0.0
2016-Sep-07 18:30S 24°04' W 046°19'0 0.0
2016-Sep-07 17:30S 24°04' W 046°19'0 0.0
2016-Sep-07 16:30S 24°04' W 046°19'0 0.0
2016-Sep-07 15:30S 24°04' W 046°19'0 0.0
2016-Sep-07 14:30S 24°04' W 046°19'0 0.0
2016-Sep-07 13:27S 24°04' W 046°19'0 0.0
2016-Sep-07 12:24S 24°04' W 046°19'0 0.0
2016-Sep-07 11:18S 24°04' W 046°19'0 0.0
2016-Sep-07 10:33S 24°04' W 046°19'0 0.0
2016-Sep-07 09:24S 24°04' W 046°19'0 0.0
2016-Sep-07 08:30S 24°04' W 046°19'0 0.0
2016-Sep-07 07:33S 24°04' W 046°19'0 0.0
2016-Sep-07 06:30S 24°04' W 046°19'0 0.0
2016-Sep-07 04:30S 24°04' W 046°20'0 0.0
2016-Sep-07 03:24S 24°04' W 046°20'0 0.0
2016-Sep-07 02:30S 24°04' W 046°20'0 0.0
2016-Sep-07 01:33S 24°04' W 046°20'0 0.0
2016-Sep-07 00:33S 24°04' W 046°20'0 0.0
2016-Sep-06 23:30S 24°04' W 046°20'0 0.0
2016-Sep-06 22:33S 24°04' W 046°20'0 0.0
2016-Sep-06 21:30S 24°04' W 046°20'0 0.0
2016-Sep-06 20:18S 24°04' W 046°20'0 0.0
2016-Sep-06 19:30S 24°04' W 046°19'0 0.0
2016-Sep-06 18:30S 24°04' W 046°19'0 0.0
2016-Sep-06 17:30S 24°04' W 046°19'0 0.0
2016-Sep-06 16:30S 24°04' W 046°19'0 0.0
2016-Sep-06 15:30S 24°04' W 046°19'0 0.0
2016-Sep-06 14:33S 24°04' W 046°19'0 0.0
2016-Sep-06 13:30S 24°04' W 046°19'0 0.0
2016-Sep-06 12:30S 24°04' W 046°19'0 0.1
2016-Sep-06 11:30S 24°04' W 046°19'0 0.0
2016-Sep-06 10:33S 24°04' W 046°19'0 0.0
2016-Sep-06 09:30S 24°04' W 046°19'0 0.0
2016-Sep-06 08:30S 24°04' W 046°19'0 0.0
2016-Sep-06 07:33S 24°04' W 046°19'0 0.0
2016-Sep-06 06:30S 24°04' W 046°19'0 0.0
2016-Sep-06 04:33S 24°04' W 046°19'0 0.0
2016-Sep-06 03:27S 24°04' W 046°19'0 0.1
2016-Sep-06 02:30S 24°04' W 046°19'0 0.0
2016-Sep-06 01:24S 24°04' W 046°19'0 0.0
2016-Sep-06 00:30S 24°04' W 046°19'0 0.0
2016-Sep-05 23:33S 24°04' W 046°19'0 0.0
2016-Sep-05 22:30S 24°04' W 046°19'0 0.1
2016-Sep-05 21:30S 24°04' W 046°19'0 0.0
2016-Sep-05 20:33S 24°04' W 046°19'0 0.0
2016-Sep-05 19:33S 24°04' W 046°19'0 0.0
2016-Sep-05 18:30S 24°04' W 046°19'0 0.0
2016-Sep-05 17:27S 24°04' W 046°19'0 0.0
2016-Sep-05 16:21S 24°04' W 046°19'0 0.0
2016-Sep-05 15:30S 24°04' W 046°19'0 0.0
2016-Sep-05 14:33S 24°04' W 046°19'0 0.0
2016-Sep-05 13:24S 24°04' W 046°19'0 0.0
2016-Sep-05 12:33S 24°04' W 046°19'  
Track history (hours):
 
Tides and Currents Weather Stations Pressure Air Temp Water Temp Dewpoint Dewpoint Depression Visibility Wind Speed Wind Dir Waves Ship Positions

Mermaid Express

Last reported at 2016-Sep-15 12:31 UTC. Time now 2016-Sep-28 01:47 UTC.
Position S 23°55' W 040°40'.
Warning: this ship's position is 12 days out of date.

Length 179 m; draft 7.5 m.

Type: Tanker. MMSI: 352866000.

Date/timePositionNaut miles runAvg speedWind from/ knotsBaromVisibWave heightAir tempDewpointWater temp
2016-Sep-15 12:31S 23°55' W 040°40'28711.8
2016-Sep-14 12:09S 24°24' W 045°52'2012.3
2016-Sep-14 10:33S 24°24' W 046°14'1111.2
2016-Sep-14 09:33S 24°15' W 046°21'1111.2
2016-Sep-14 08:34S 24°04' W 046°22'7 6.6
2016-Sep-14 07:30S 23°58' W 046°18'  
2016-Sep-09 05:33S 23°59' W 046°17'6 6.0
2016-Sep-09 04:33S 24°04' W 046°21'2 1.8
2016-Sep-09 03:30S 24°04' W 046°19'0 0.0
2016-Sep-09 02:33S 24°04' W 046°19'0 0.0
2016-Sep-09 01:30S 24°04' W 046°19'0 0.0
2016-Sep-09 00:30S 24°04' W 046°19'0 0.0
2016-Sep-08 23:33S 24°04' W 046°19'0 0.0
2016-Sep-08 22:33S 24°04' W 046°19'0 0.0
2016-Sep-08 21:30S 24°04' W 046°19'0 0.0
2016-Sep-08 20:30S 24°04' W 046°19'0 0.0
2016-Sep-08 19:30S 24°04' W 046°19'0 0.0
2016-Sep-08 18:27S 24°04' W 046°19'0 0.0
2016-Sep-08 17:30S 24°04' W 046°19'0 0.0
2016-Sep-08 16:30S 24°04' W 046°19'0 0.0
2016-Sep-08 15:30S 24°04' W 046°19'0 0.0
2016-Sep-08 14:30S 24°04' W 046°19'0 0.0
2016-Sep-08 13:24S 24°04' W 046°19'0 0.0
2016-Sep-08 12:30S 24°04' W 046°19'0 0.0
2016-Sep-08 11:30S 24°04' W 046°19'0 0.0
2016-Sep-08 10:30S 24°04' W 046°19'0 0.0
2016-Sep-08 09:33S 24°04' W 046°19'0 0.0
2016-Sep-08 08:30S 24°04' W 046°19'0 0.0
2016-Sep-08 07:30S 24°04' W 046°19'0 0.0
2016-Sep-08 06:30S 24°04' W 046°19'0 0.0
2016-Sep-08 05:33S 24°04' W 046°19'0 0.0
2016-Sep-08 04:30S 24°04' W 046°19'0 0.0
2016-Sep-08 03:30S 24°04' W 046°20'0 0.0
2016-Sep-08 02:30S 24°04' W 046°19'0 0.0
2016-Sep-08 01:30S 24°04' W 046°19'0 0.0
2016-Sep-08 00:30S 24°04' W 046°19'0 0.0
2016-Sep-07 23:30S 24°04' W 046°19'0 0.0
2016-Sep-07 22:30S 24°04' W 046°19'0 0.0
2016-Sep-07 21:24S 24°04' W 046°19'0 0.0
2016-Sep-07 20:30S 24°04' W 046°19'0 0.0
2016-Sep-07 19:24S 24°04' W 046°19'0 0.0
2016-Sep-07 18:30S 24°04' W 046°19'0 0.0
2016-Sep-07 17:30S 24°04' W 046°19'0 0.0
2016-Sep-07 16:30S 24°04' W 046°19'0 0.0
2016-Sep-07 15:30S 24°04' W 046°19'0 0.0
2016-Sep-07 14:30S 24°04' W 046°19'0 0.0
2016-Sep-07 13:27S 24°04' W 046°19'0 0.0
2016-Sep-07 12:24S 24°04' W 046°19'0 0.0
2016-Sep-07 11:18S 24°04' W 046°19'0 0.0
2016-Sep-07 10:33S 24°04' W 046°19'0 0.0
2016-Sep-07 09:24S 24°04' W 046°19'0 0.0
2016-Sep-07 08:30S 24°04' W 046°19'0 0.0
2016-Sep-07 07:33S 24°04' W 046°19'0 0.0
2016-Sep-07 06:30S 24°04' W 046°19'0 0.0
2016-Sep-07 04:30S 24°04' W 046°20'0 0.0
2016-Sep-07 03:24S 24°04' W 046°20'0 0.0
2016-Sep-07 02:30S 24°04' W 046°20'0 0.0
2016-Sep-07 01:33S 24°04' W 046°20'0 0.0
2016-Sep-07 00:33S 24°04' W 046°20'0 0.0
2016-Sep-06 23:30S 24°04' W 046°20'0 0.0
2016-Sep-06 22:33S 24°04' W 046°20'0 0.0
2016-Sep-06 21:30S 24°04' W 046°20'0 0.0
2016-Sep-06 20:18S 24°04' W 046°20'0 0.0
2016-Sep-06 19:30S 24°04' W 046°19'0 0.0
2016-Sep-06 18:30S 24°04' W 046°19'0 0.0
2016-Sep-06 17:30S 24°04' W 046°19'0 0.0
2016-Sep-06 16:30S 24°04' W 046°19'0 0.0
2016-Sep-06 15:30S 24°04' W 046°19'0 0.0
2016-Sep-06 14:33S 24°04' W 046°19'0 0.0
2016-Sep-06 13:30S 24°04' W 046°19'0 0.0
2016-Sep-06 12:30S 24°04' W 046°19'0 0.1
2016-Sep-06 11:30S 24°04' W 046°19'0 0.0
2016-Sep-06 10:33S 24°04' W 046°19'0 0.0
2016-Sep-06 09:30S 24°04' W 046°19'0 0.0
2016-Sep-06 08:30S 24°04' W 046°19'0 0.0
2016-Sep-06 07:33S 24°04' W 046°19'0 0.0
2016-Sep-06 06:30S 24°04' W 046°19'0 0.0
2016-Sep-06 04:33S 24°04' W 046°19'0 0.0
2016-Sep-06 03:27S 24°04' W 046°19'0 0.1
2016-Sep-06 02:30S 24°04' W 046°19'0 0.0
2016-Sep-06 01:24S 24°04' W 046°19'0 0.0
2016-Sep-06 00:30S 24°04' W 046°19'0 0.0
2016-Sep-05 23:33S 24°04' W 046°19'0 0.0
2016-Sep-05 22:30S 24°04' W 046°19'0 0.1
2016-Sep-05 21:30S 24°04' W 046°19'0 0.0
2016-Sep-05 20:33S 24°04' W 046°19'0 0.0
2016-Sep-05 19:33S 24°04' W 046°19'0 0.0
2016-Sep-05 18:30S 24°04' W 046°19'0 0.0
2016-Sep-05 17:27S 24°04' W 046°19'0 0.0
2016-Sep-05 16:21S 24°04' W 046°19'0 0.0
2016-Sep-05 15:30S 24°04' W 046°19'0 0.0
2016-Sep-05 14:33S 24°04' W 046°19'0 0.0
2016-Sep-05 13:24S 24°04' W 046°19'0 0.0
2016-Sep-05 12:33S 24°04' W 046°19'  

Dump ship's entire track history